createdAt,value
2018-03-16T00:00:41.518Z,86.53
2018-03-16T00:03:09.041Z,86.73
2018-03-16T00:05:36.691Z,86.67
2018-03-16T00:08:04.269Z,86.65
2018-03-16T00:10:31.839Z,87.28
2018-03-16T00:12:59.425Z,87.44
2018-03-16T00:15:26.968Z,87.42
2018-03-16T00:17:54.505Z,87.46
2018-03-16T00:20:22.054Z,87.81
2018-03-16T00:22:49.610Z,87.83
2018-03-16T00:25:17.157Z,87.98
2018-03-16T00:27:44.717Z,87.89
2018-03-16T00:30:12.280Z,87.74
2018-03-16T00:32:40.709Z,87.33
2018-03-16T00:35:08.327Z,86.90
2018-03-16T00:37:36.804Z,86.63
2018-03-16T00:40:04.459Z,86.48
2018-03-16T00:42:32.031Z,86.77
2018-03-16T00:44:59.558Z,86.97
2018-03-16T00:47:27.110Z,86.82
2018-03-16T00:49:54.641Z,86.98
2018-03-16T00:52:22.238Z,86.87
2018-03-16T00:54:49.768Z,87.03
2018-03-16T00:57:17.314Z,86.87
2018-03-16T00:59:44.845Z,86.95
2018-03-16T01:02:12.402Z,86.88
2018-03-16T01:04:39.942Z,87.28
2018-03-16T01:07:07.517Z,87.12
2018-03-16T01:09:35.049Z,87.37
2018-03-16T01:12:02.614Z,87.46
2018-03-16T01:14:30.157Z,87.40
2018-03-16T01:16:57.730Z,87.42
2018-03-16T01:19:25.336Z,87.25
2018-03-16T01:21:52.991Z,87.28
2018-03-16T01:24:20.531Z,87.63
2018-03-16T01:26:48.109Z,87.41
2018-03-16T01:29:15.679Z,87.59
2018-03-16T01:31:43.216Z,87.62
2018-03-16T01:34:10.900Z,87.59
2018-03-16T01:36:38.438Z,87.46
2018-03-16T01:39:06.132Z,87.66
2018-03-16T01:41:33.659Z,87.30
2018-03-16T01:44:01.264Z,87.69
2018-03-16T01:46:28.821Z,87.76
2018-03-16T01:48:56.382Z,87.87
2018-03-16T01:51:23.913Z,88.55
2018-03-16T01:53:51.473Z,88.60
2018-03-16T01:56:19.014Z,88.59
2018-03-16T01:58:46.569Z,88.45
2018-03-16T02:01:14.105Z,88.54
2018-03-16T02:03:41.662Z,88.78
2018-03-16T02:06:09.279Z,88.84
2018-03-16T02:08:36.917Z,88.84
2018-03-16T02:11:04.579Z,88.84
2018-03-16T02:13:32.146Z,89.01
2018-03-16T02:15:59.704Z,89.08
2018-03-16T02:18:27.282Z,89.09
2018-03-16T02:20:54.818Z,89.04
2018-03-16T02:23:22.396Z,89.26
2018-03-16T02:25:49.937Z,89.31
2018-03-16T02:28:17.517Z,89.38
2018-03-16T02:30:45.053Z,89.27
2018-03-16T02:33:12.614Z,89.16
2018-03-16T02:35:40.173Z,89.22
2018-03-16T02:38:07.727Z,89.28
2018-03-16T02:40:35.254Z,89.20
2018-03-16T02:43:02.842Z,88.99
2018-03-16T02:45:30.435Z,88.93
2018-03-16T02:47:57.993Z,88.65
2018-03-16T02:50:25.554Z,88.57
2018-03-16T02:52:53.154Z,88.70
2018-03-16T02:55:20.706Z,88.65
2018-03-16T02:57:48.334Z,88.78
2018-03-16T03:00:15.887Z,88.64
2018-03-16T03:02:43.418Z,88.83
2018-03-16T03:05:10.978Z,88.91
2018-03-16T03:07:38.549Z,89.05
2018-03-16T03:10:06.102Z,89.31
2018-03-16T03:12:33.637Z,89.45
2018-03-16T03:15:01.197Z,89.41
2018-03-16T03:17:28.749Z,88.96
2018-03-16T03:19:56.311Z,88.80
2018-03-16T03:22:23.847Z,88.52
2018-03-16T03:24:51.401Z,88.76
2018-03-16T03:27:18.933Z,88.73
2018-03-16T03:29:46.515Z,88.10
2018-03-16T03:32:14.056Z,88.20
2018-03-16T03:34:41.634Z,88.12
2018-03-16T03:37:09.189Z,87.46
2018-03-16T03:39:36.753Z,87.17
2018-03-16T03:42:04.298Z,86.79
2018-03-16T03:44:31.869Z,86.92
2018-03-16T03:46:59.402Z,86.84
2018-03-16T03:49:26.985Z,87.02
2018-03-16T03:51:54.558Z,87.61
2018-03-16T03:54:22.098Z,87.57
2018-03-16T03:56:49.658Z,87.17
2018-03-16T03:59:17.197Z,87.28
2018-03-16T04:01:44.769Z,87.41
2018-03-16T04:04:12.326Z,87.20
2018-03-16T04:06:39.903Z,86.87
2018-03-16T04:09:07.469Z,86.93
2018-03-16T04:11:35.129Z,86.06
2018-03-16T04:14:02.671Z,85.89
2018-03-16T04:16:30.244Z,85.82
2018-03-16T04:18:57.809Z,86.06
2018-03-16T04:21:25.370Z,85.75
2018-03-16T04:23:52.951Z,85.30
2018-03-16T04:26:20.518Z,85.86
2018-03-16T04:28:49.045Z,85.85
2018-03-16T04:31:16.638Z,85.36
2018-03-16T04:33:44.225Z,85.39
2018-03-16T04:36:11.954Z,85.37
2018-03-16T04:38:39.615Z,85.38
2018-03-16T04:41:07.202Z,84.63
2018-03-16T04:43:34.753Z,84.77
2018-03-16T04:46:02.334Z,85.08
2018-03-16T04:48:29.869Z,84.98
2018-03-16T04:50:57.428Z,85.20
2018-03-16T04:53:24.995Z,85.26
2018-03-16T04:55:52.654Z,85.45
2018-03-16T04:58:20.188Z,85.94
2018-03-16T05:00:47.762Z,86.29
2018-03-16T05:03:15.349Z,86.72
2018-03-16T05:05:42.992Z,86.92
2018-03-16T05:08:10.553Z,86.83
2018-03-16T05:10:38.114Z,86.99
2018-03-16T05:13:05.678Z,86.95
2018-03-16T05:15:33.214Z,87.25
2018-03-16T05:18:00.780Z,87.03
2018-03-16T05:20:28.322Z,86.72
2018-03-16T05:22:55.909Z,86.44
2018-03-16T05:25:23.454Z,85.65
2018-03-16T05:27:51.014Z,85.60
2018-03-16T05:30:18.553Z,85.88
2018-03-16T05:32:46.143Z,85.34
2018-03-16T05:35:13.682Z,85.56
2018-03-16T05:37:41.262Z,85.76
2018-03-16T05:40:08.789Z,86.00
2018-03-16T05:42:36.344Z,85.82
2018-03-16T05:45:03.937Z,85.94
2018-03-16T05:47:31.544Z,86.12
2018-03-16T05:49:59.075Z,86.47
2018-03-16T05:52:26.745Z,86.91
2018-03-16T05:54:54.292Z,86.97
2018-03-16T05:57:21.943Z,87.17
2018-03-16T05:59:49.587Z,87.13
2018-03-16T06:02:17.153Z,87.00
2018-03-16T06:04:44.693Z,86.39
2018-03-16T06:07:12.254Z,86.11
2018-03-16T06:09:39.792Z,85.97
2018-03-16T06:12:07.410Z,85.53
2018-03-16T06:14:35.009Z,84.98
2018-03-16T06:17:02.559Z,85.03
2018-03-16T06:19:30.197Z,85.36
2018-03-16T06:21:57.765Z,85.61
2018-03-16T06:24:25.319Z,84.61
2018-03-16T06:26:52.909Z,84.56
2018-03-16T06:29:20.465Z,84.21
2018-03-16T06:31:48.005Z,84.37
2018-03-16T06:34:15.576Z,84.16
2018-03-16T06:36:43.127Z,83.94
2018-03-16T06:39:10.682Z,84.02
2018-03-16T06:41:38.279Z,83.76
2018-03-16T06:44:05.837Z,83.51
2018-03-16T06:46:33.378Z,82.94
2018-03-16T06:49:00.934Z,82.42
2018-03-16T06:51:28.586Z,83.00
2018-03-16T06:53:56.221Z,82.54
2018-03-16T06:56:23.760Z,83.11
2018-03-16T06:58:51.327Z,82.67
2018-03-16T07:01:18.860Z,82.43
2018-03-16T07:03:46.422Z,81.76
2018-03-16T07:06:13.959Z,81.70
2018-03-16T07:08:41.508Z,81.89
2018-03-16T07:11:09.048Z,81.28
2018-03-16T07:13:36.605Z,80.70
2018-03-16T07:16:04.152Z,80.05
2018-03-16T07:18:31.821Z,79.55
2018-03-16T07:20:59.357Z,79.19
2018-03-16T07:23:26.893Z,77.66
2018-03-16T07:25:54.482Z,77.12
2018-03-16T07:28:22.023Z,76.02
2018-03-16T07:30:49.587Z,75.54
2018-03-16T07:33:17.124Z,75.97
2018-03-16T07:35:44.678Z,77.34
2018-03-16T07:38:12.300Z,75.22
2018-03-16T07:40:39.854Z,74.33
2018-03-16T07:43:08.643Z,74.42
2018-03-16T07:45:41.842Z,74.28
2018-03-16T07:48:09.373Z,75.20
2018-03-16T07:50:36.927Z,73.76
2018-03-16T07:53:04.461Z,72.86
2018-03-16T07:55:32.018Z,73.41
2018-03-16T07:57:59.665Z,73.54
2018-03-16T08:00:27.287Z,72.53
2018-03-16T08:02:54.843Z,72.39
2018-03-16T08:05:22.414Z,73.74
2018-03-16T08:07:49.951Z,72.50
2018-03-16T08:10:17.507Z,72.85
2018-03-16T08:12:45.040Z,72.73
2018-03-16T08:15:12.696Z,71.43
2018-03-16T08:17:40.246Z,72.00
2018-03-16T08:20:07.798Z,72.32
2018-03-16T08:22:35.330Z,72.45
2018-03-16T08:25:03.018Z,71.96
2018-03-16T08:27:30.574Z,71.75
2018-03-16T08:29:58.161Z,71.03
2018-03-16T08:32:25.704Z,69.87
2018-03-16T08:34:53.246Z,69.31
2018-03-16T08:37:20.806Z,68.35
2018-03-16T08:39:48.385Z,67.75
2018-03-16T08:42:15.946Z,67.38
2018-03-16T08:44:43.483Z,67.57
2018-03-16T08:47:11.047Z,68.60
2018-03-16T08:49:38.765Z,69.42
2018-03-16T08:52:06.332Z,69.97
2018-03-16T08:54:33.902Z,69.48
2018-03-16T08:57:01.474Z,68.53
2018-03-16T08:59:29.069Z,67.56
2018-03-16T09:01:56.719Z,66.98
2018-03-16T09:04:24.281Z,65.20
2018-03-16T09:06:51.850Z,66.52
2018-03-16T09:09:19.504Z,62.33
2018-03-16T09:11:47.158Z,61.98
2018-03-16T09:14:14.694Z,61.39
2018-03-16T09:16:42.277Z,61.15
2018-03-16T09:19:10.411Z,61.56
2018-03-16T09:21:37.965Z,57.94
2018-03-16T09:24:05.546Z,57.13
2018-03-16T09:26:33.104Z,56.10
2018-03-16T09:29:00.641Z,57.07
2018-03-16T09:31:28.194Z,54.45
2018-03-16T09:33:55.728Z,54.90
2018-03-16T09:36:23.337Z,53.38
2018-03-16T09:38:50.865Z,50.84
2018-03-16T09:41:18.426Z,49.91
2018-03-16T09:43:46.058Z,51.63
2018-03-16T09:46:13.610Z,52.39
2018-03-16T09:48:41.165Z,56.19
2018-03-16T09:51:08.725Z,56.57
2018-03-16T09:53:36.286Z,57.49
2018-03-16T09:56:03.834Z,57.17
2018-03-16T09:58:31.510Z,56.27
2018-03-16T10:00:59.037Z,55.63
2018-03-16T10:03:26.657Z,55.39
2018-03-16T10:05:54.189Z,56.71
2018-03-16T10:08:21.749Z,56.88
2018-03-16T10:10:49.278Z,59.19
2018-03-16T10:13:16.829Z,59.83
2018-03-16T10:15:44.353Z,57.17
2018-03-16T10:18:11.926Z,58.10
2018-03-16T10:20:39.477Z,60.06
2018-03-16T10:23:07.030Z,57.16
2018-03-16T10:25:34.683Z,56.54
2018-03-16T10:28:02.483Z,55.21
2018-03-16T10:30:30.039Z,53.64
2018-03-16T10:32:57.648Z,55.45
2018-03-16T10:35:25.200Z,51.72
2018-03-16T10:37:52.823Z,52.71
2018-03-16T10:40:21.198Z,51.79
2018-03-16T10:42:48.764Z,51.57
2018-03-16T10:45:16.308Z,49.37
2018-03-16T10:47:43.870Z,47.12
2018-03-16T10:50:11.394Z,47.20
2018-03-16T10:52:38.974Z,49.27
2018-03-16T10:55:06.502Z,49.05
2018-03-16T10:57:34.986Z,49.44
2018-03-16T11:00:02.534Z,48.51
2018-03-16T11:02:35.663Z,48.07
2018-03-16T11:05:08.774Z,49.74
2018-03-16T11:07:43.141Z,48.10
2018-03-16T11:10:10.774Z,47.70
2018-03-16T11:12:38.606Z,50.46
2018-03-16T11:15:06.169Z,52.64
2018-03-16T11:17:33.705Z,50.64
2018-03-16T11:20:01.257Z,54.59
2018-03-16T11:22:28.810Z,53.95
2018-03-16T11:24:56.374Z,54.48
2018-03-16T11:27:23.910Z,56.86
2018-03-16T11:29:51.500Z,57.05
2018-03-16T11:32:19.054Z,58.73
2018-03-16T11:34:46.613Z,58.42
2018-03-16T11:37:14.152Z,56.81
2018-03-16T11:39:41.715Z,55.26
2018-03-16T11:42:09.450Z,53.99
2018-03-16T11:44:37.000Z,53.18
2018-03-16T11:47:04.628Z,47.66
2018-03-16T11:49:33.202Z,48.18
2018-03-16T11:52:00.753Z,41.60
2018-03-16T11:54:28.342Z,35.48
2018-03-16T11:56:55.882Z,35.71
2018-03-16T11:59:23.450Z,37.29
2018-03-16T12:01:51.087Z,39.48
2018-03-16T12:04:18.650Z,39.75
2018-03-16T12:06:46.197Z,36.20
2018-03-16T12:09:13.745Z,32.21
2018-03-16T12:11:41.323Z,29.31
2018-03-16T12:14:08.870Z,29.17
2018-03-16T12:16:36.467Z,24.65
2018-03-16T12:19:04.074Z,25.17
2018-03-16T12:21:31.614Z,28.59
2018-03-16T12:23:59.261Z,29.69
2018-03-16T12:26:26.832Z,30.47
2018-03-16T12:28:54.369Z,34.28
2018-03-16T12:31:21.937Z,36.72
2018-03-16T12:33:49.478Z,31.27
2018-03-16T12:36:17.186Z,30.64
2018-03-16T12:38:44.762Z,32.53
2018-03-16T12:41:12.350Z,27.36
2018-03-16T12:43:39.897Z,24.91
2018-03-16T12:46:07.476Z,29.94
2018-03-16T12:48:35.837Z,32.44
2018-03-16T12:51:03.385Z,27.77
2018-03-16T12:53:30.980Z,25.94
2018-03-16T12:55:58.552Z,25.39
2018-03-16T12:58:26.086Z,23.57
2018-03-16T13:00:53.633Z,21.51
2018-03-16T13:03:21.221Z,19.94
2018-03-16T13:05:48.778Z,21.22
2018-03-16T13:08:16.330Z,18.82
2018-03-16T13:10:43.952Z,23.05
2018-03-16T13:13:11.501Z,23.05
2018-03-16T13:15:39.088Z,26.43
2018-03-16T13:18:06.627Z,28.68
2018-03-16T13:20:34.195Z,32.38
2018-03-16T13:23:01.762Z,33.75
2018-03-16T13:25:29.363Z,33.42
2018-03-16T13:27:56.967Z,35.34
2018-03-16T13:30:24.571Z,36.94
2018-03-16T13:32:52.150Z,39.92
2018-03-16T13:35:19.687Z,31.27
2018-03-16T13:37:47.250Z,24.84
2018-03-16T13:40:14.826Z,26.73
2018-03-16T13:42:42.453Z,30.43
2018-03-16T13:45:09.985Z,33.01
2018-03-16T13:47:37.550Z,28.14
2018-03-16T13:50:05.152Z,25.48
2018-03-16T13:52:32.732Z,21.72
2018-03-16T13:55:00.298Z,18.27
2018-03-16T13:57:27.853Z,16.76
2018-03-16T13:59:55.389Z,16.94
2018-03-16T14:02:22.981Z,14.09
2018-03-16T14:04:50.518Z,12.53
2018-03-16T14:07:18.106Z,13.53
2018-03-16T14:09:45.637Z,15.58
2018-03-16T14:12:13.255Z,13.58
2018-03-16T14:14:40.801Z,14.53
2018-03-16T14:17:08.414Z,13.52
2018-03-16T14:19:35.962Z,13.74
2018-03-16T14:22:03.517Z,13.98
2018-03-16T14:24:31.061Z,13.17
2018-03-16T14:26:58.630Z,11.51
2018-03-16T14:29:26.170Z,12.17
2018-03-16T14:31:53.746Z,14.04
2018-03-16T14:34:21.294Z,18.73
2018-03-16T14:36:48.909Z,20.07
2018-03-16T14:39:16.446Z,22.93
2018-03-16T14:41:44.062Z,21.08
2018-03-16T14:44:12.012Z,26.47
2018-03-16T14:46:39.886Z,21.14
2018-03-16T14:49:07.522Z,22.08
2018-03-16T14:51:35.112Z,27.65
2018-03-16T14:54:02.765Z,27.17
2018-03-16T14:56:30.333Z,28.68
2018-03-16T14:58:57.881Z,31.67
2018-03-16T15:01:25.516Z,32.63
2018-03-16T15:03:53.082Z,30.56
2018-03-16T15:06:20.616Z,28.01
2018-03-16T15:08:48.171Z,29.39
2018-03-16T15:11:15.703Z,32.84
2018-03-16T15:13:43.266Z,34.64
2018-03-16T15:16:10.798Z,34.18
2018-03-16T15:18:38.353Z,35.77
2018-03-16T15:21:05.926Z,35.55
2018-03-16T15:23:33.486Z,36.10
2018-03-16T15:26:01.010Z,35.73
2018-03-16T15:28:28.544Z,31.24
2018-03-16T15:30:56.051Z,25.04
2018-03-16T15:33:23.667Z,20.26
2018-03-16T15:35:51.150Z,18.49
2018-03-16T15:38:18.672Z,19.15
2018-03-16T15:40:46.187Z,20.53
2018-03-16T15:43:13.824Z,23.25
2018-03-16T15:45:41.328Z,23.56
2018-03-16T15:48:09.859Z,24.71
2018-03-16T15:50:37.370Z,26.52
2018-03-16T15:53:04.893Z,26.48
2018-03-16T15:55:32.412Z,25.74
2018-03-16T15:57:59.909Z,27.46
2018-03-16T16:00:27.867Z,29.92
2018-03-16T16:02:55.416Z,31.37
2018-03-16T16:05:22.979Z,36.14
2018-03-16T16:07:50.468Z,37.79
2018-03-16T16:10:18.105Z,38.65
2018-03-16T16:12:45.672Z,39.00
2018-03-16T16:15:13.225Z,39.55
2018-03-16T16:17:40.748Z,39.99
2018-03-16T16:20:08.276Z,40.23
2018-03-16T16:22:35.805Z,40.69
2018-03-16T16:25:03.322Z,41.15
2018-03-16T16:27:30.824Z,40.66
2018-03-16T16:29:58.416Z,40.93
2018-03-16T16:32:25.903Z,40.91
2018-03-16T16:34:53.441Z,41.53
2018-03-16T16:37:21.040Z,42.41
2018-03-16T16:39:48.572Z,41.41
2018-03-16T16:42:17.060Z,42.17
2018-03-16T16:44:44.575Z,43.02
2018-03-16T16:47:12.102Z,43.08
2018-03-16T16:49:39.613Z,44.00
2018-03-16T16:52:07.139Z,44.09
2018-03-16T16:54:34.652Z,43.37
2018-03-16T16:57:02.228Z,39.39
2018-03-16T16:59:29.724Z,34.47
2018-03-16T17:01:57.283Z,33.21
2018-03-16T17:04:24.772Z,33.18
2018-03-16T17:06:52.285Z,34.79
2018-03-16T17:09:19.800Z,36.62
2018-03-16T17:11:47.403Z,36.86
2018-03-16T17:14:14.904Z,37.82
2018-03-16T17:16:42.419Z,40.88
2018-03-16T17:19:10.070Z,43.70
2018-03-16T17:21:37.588Z,45.14
2018-03-16T17:24:05.081Z,46.92
2018-03-16T17:26:32.593Z,48.50
2018-03-16T17:29:00.073Z,49.39
2018-03-16T17:31:27.588Z,50.47
2018-03-16T17:33:55.096Z,51.06
2018-03-16T17:36:22.624Z,52.14
2018-03-16T17:38:50.306Z,52.33
2018-03-16T17:41:17.824Z,53.32
2018-03-16T17:43:45.419Z,53.27
2018-03-16T17:46:12.915Z,53.61
2018-03-16T17:48:40.403Z,54.36
2018-03-16T17:51:07.935Z,54.36
2018-03-16T17:53:35.462Z,54.18
2018-03-16T17:56:02.989Z,55.00
2018-03-16T17:58:30.538Z,54.69
2018-03-16T18:00:58.052Z,55.42
2018-03-16T18:03:25.575Z,55.51
2018-03-16T18:05:53.867Z,55.65
2018-03-16T18:08:21.436Z,55.90
2018-03-16T18:10:48.922Z,56.37
2018-03-16T18:13:16.444Z,56.90
2018-03-16T18:15:43.936Z,57.13
2018-03-16T18:18:11.448Z,57.31
2018-03-16T18:20:39.860Z,57.26
2018-03-16T18:23:07.376Z,57.55
2018-03-16T18:25:34.876Z,57.37
2018-03-16T18:28:02.392Z,57.39
2018-03-16T18:30:30.820Z,58.23
2018-03-16T18:32:58.340Z,58.35
2018-03-16T18:35:25.839Z,58.24
2018-03-16T18:37:53.351Z,57.90
2018-03-16T18:40:20.851Z,57.91
2018-03-16T18:42:48.363Z,58.20
2018-03-16T18:45:16.783Z,58.44
2018-03-16T18:47:44.320Z,58.45
2018-03-16T18:50:11.840Z,58.46
2018-03-16T18:52:44.348Z,58.33
2018-03-16T18:55:26.968Z,58.96
2018-03-16T18:57:57.325Z,59.43
2018-03-16T19:00:27.148Z,59.56
2018-03-16T19:02:56.444Z,58.69
2018-03-16T19:05:26.353Z,58.76
2018-03-16T19:07:54.730Z,59.03
2018-03-16T19:10:23.769Z,59.81
2018-03-16T19:12:51.980Z,59.94
2018-03-16T19:15:20.682Z,60.16
2018-03-16T19:17:49.442Z,60.32
2018-03-16T19:20:19.499Z,60.94
2018-03-16T19:22:47.549Z,61.33
2018-03-16T19:25:16.603Z,61.33
2018-03-16T19:27:44.509Z,61.93
2018-03-16T19:30:13.008Z,62.44
2018-03-16T19:32:42.787Z,62.80
2018-03-16T19:35:10.978Z,63.29
2018-03-16T19:37:39.280Z,62.99
2018-03-16T19:40:07.563Z,63.35
2018-03-16T19:42:35.914Z,63.62
2018-03-16T19:45:05.088Z,64.04
2018-03-16T19:47:33.304Z,64.66
2018-03-16T19:50:01.402Z,65.17
2018-03-16T19:52:30.233Z,65.45
2018-03-16T19:54:58.141Z,66.02
2018-03-16T19:57:26.807Z,66.78
2018-03-16T19:59:55.043Z,67.28
2018-03-16T20:02:23.007Z,67.65
2018-03-16T20:04:51.616Z,67.75
2018-03-16T20:07:22.622Z,67.94
2018-03-16T20:09:51.186Z,67.24
2018-03-16T20:12:22.856Z,67.32
2018-03-16T20:14:53.546Z,67.12
2018-03-16T20:17:22.123Z,67.21
2018-03-16T20:19:50.613Z,67.29
2018-03-16T20:22:22.503Z,67.71
2018-03-16T20:24:54.169Z,67.65
2018-03-16T20:27:25.991Z,67.72
2018-03-16T20:29:56.396Z,67.60
2018-03-16T20:32:27.933Z,66.85
2018-03-16T20:34:56.322Z,66.51
2018-03-16T20:37:24.465Z,66.54
2018-03-16T20:39:52.468Z,66.88
2018-03-16T20:42:23.011Z,67.71
2018-03-16T20:44:55.569Z,68.45
2018-03-16T20:47:24.851Z,69.24
2018-03-16T20:49:53.202Z,69.84
2018-03-16T20:52:26.795Z,70.78
2018-03-16T20:54:56.970Z,71.53
2018-03-16T20:57:25.403Z,71.39
2018-03-16T20:59:53.761Z,71.92
2018-03-16T21:02:23.119Z,71.91
2018-03-16T21:04:52.709Z,71.78
2018-03-16T21:07:21.126Z,72.03
2018-03-16T21:09:49.164Z,72.71
2018-03-16T21:12:17.934Z,72.54
2018-03-16T21:14:47.852Z,72.77
2018-03-16T21:17:16.767Z,72.74
2018-03-16T21:19:46.347Z,72.96
2018-03-16T21:22:15.458Z,73.29
2018-03-16T21:24:44.253Z,73.97
2018-03-16T21:27:13.228Z,73.91
2018-03-16T21:29:43.551Z,74.50
2018-03-16T21:32:11.745Z,74.66
2018-03-16T21:34:40.388Z,74.71
2018-03-16T21:37:09.013Z,74.91
2018-03-16T21:39:38.124Z,74.61
2018-03-16T21:42:10.086Z,74.85
2018-03-16T21:44:39.482Z,74.45
2018-03-16T21:47:08.643Z,74.90
2018-03-16T21:49:38.058Z,75.56
2018-03-16T21:52:07.319Z,75.46
2018-03-16T21:54:37.381Z,75.09
2018-03-16T21:57:11.645Z,75.07
2018-03-16T21:59:44.573Z,75.56
2018-03-16T22:02:19.361Z,75.99
2018-03-16T22:04:50.453Z,77.18
2018-03-16T22:07:19.798Z,77.17
2018-03-16T22:09:48.484Z,77.33
2018-03-16T22:12:18.774Z,77.80
2018-03-16T22:14:49.083Z,77.47
2018-03-16T22:17:18.997Z,76.56
2018-03-16T22:19:49.308Z,76.21
2018-03-16T22:22:18.392Z,76.43
2018-03-16T22:24:47.671Z,75.83
2018-03-16T22:27:19.194Z,75.72
2018-03-16T22:29:50.186Z,75.89
2018-03-16T22:32:18.817Z,75.90
2018-03-16T22:34:47.268Z,76.21
2018-03-16T22:37:16.052Z,76.14
2018-03-16T22:39:48.083Z,76.14
2018-03-16T22:42:17.779Z,76.00
2018-03-16T22:44:46.692Z,76.36
2018-03-16T22:47:15.026Z,76.13
2018-03-16T22:49:43.975Z,76.62
2018-03-16T22:52:11.472Z,76.86
2018-03-16T22:54:38.979Z,76.86
2018-03-16T22:57:06.468Z,77.50
2018-03-16T22:59:33.991Z,77.30
2018-03-16T23:02:01.479Z,77.48
2018-03-16T23:04:29.128Z,77.61
2018-03-16T23:06:56.626Z,76.85
2018-03-16T23:09:24.136Z,76.59
2018-03-16T23:11:51.708Z,76.35
2018-03-16T23:14:19.228Z,76.36
2018-03-16T23:16:46.780Z,76.59
2018-03-16T23:19:14.243Z,77.11
2018-03-16T23:21:41.747Z,77.62
2018-03-16T23:24:09.299Z,77.95
2018-03-16T23:26:36.779Z,78.12
2018-03-16T23:29:04.316Z,78.72
2018-03-16T23:31:31.948Z,79.47
2018-03-16T23:33:59.464Z,79.51
2018-03-16T23:36:26.955Z,79.66
2018-03-16T23:38:54.556Z,79.79
2018-03-16T23:41:22.050Z,79.98
2018-03-16T23:43:49.536Z,80.13
2018-03-16T23:46:17.045Z,80.45
2018-03-16T23:48:44.537Z,80.62
2018-03-16T23:51:12.048Z,80.88
2018-03-16T23:53:39.535Z,81.13
2018-03-16T23:56:07.059Z,81.35
2018-03-16T23:58:34.543Z,81.24
